»·PEaware :: N6593L KBXK-KCHD

N6593L :: KBXK-KCHD

FLIGHT INFORMATION

Flight Status: Arrived
Operator: Privately registered:
United States
More flights under this callsign
Pilot: Mark Q. (29803)
Aircraft: CESSNA 172 SKYHAWK
(C172)
More flights by this aircraft type
Origin: KBXK Buckeye Mun
United States
Destination: KCHD Chandler Mun
United States
More flights between these airports :: More routes between these airports
Route: 10AZ VPPIR 331604N1121144W VPFRB
File this flight plan on PilotEdge
Remarks: VFR Flyways
Altitude:
(Current/Filed)
3,500ft
Speed:
(Current/Filed)
110kts
Departed: 18-Oct-20 12:50 PM
Arrived: 18-Oct-20 01:24 PM
Distance/Time
Traveled:
45nm/0:34
Distance/Time
To Go:
Arrived

Flight Plot

Page will automatically refresh every two minutes.

Flight plan parsing failed; only flown route is shown


Map Options




Map Legend


Flown Route
Filed Route
Departure Airport
Arrival Airport
Navaid (VOR, NDB)
Fix

Horizontal Profiles

Position Reports

Time Latitude Longitude Heading Altitude Ground
Speed
18-Oct-20 12:26 33.419972 -112.683944 91 1004ft 0kts
18-Oct-20 12:27 33.419972 -112.683944 91 1004ft 0kts
18-Oct-20 12:28 33.419972 -112.683944 91 1004ft 0kts
18-Oct-20 12:29 33.419972 -112.683944 91 1004ft 0kts
18-Oct-20 12:30 33.419972 -112.683944 91 1004ft 0kts
18-Oct-20 12:31 33.419972 -112.683944 91 1004ft 0kts
18-Oct-20 12:32 33.419972 -112.683944 91 1004ft 0kts
18-Oct-20 12:33 33.419972 -112.683944 91 1004ft 0kts
18-Oct-20 12:34 33.419972 -112.683944 91 1004ft 0kts
18-Oct-20 12:35 33.419972 -112.683944 91 1004ft 0kts
18-Oct-20 12:36 33.419972 -112.683944 91 1004ft 0kts
18-Oct-20 12:37 33.419972 -112.683944 91 1004ft 0kts
18-Oct-20 12:38 33.419972 -112.683934 91 1004ft 0kts
18-Oct-20 12:39 33.420716 -112.683880 340 1006ft 0kts
18-Oct-20 12:40 33.421908 -112.684981 0 1008ft 6kts
18-Oct-20 12:41 33.424159 -112.684845 0 1013ft 15kts
18-Oct-20 12:42 33.428600 -112.684681 1 1022ft 10kts
18-Oct-20 12:43 33.429540 -112.684364 346 1024ft 0kts
18-Oct-20 12:44 33.429540 -112.684364 346 1024ft 0kts
18-Oct-20 12:45 33.429540 -112.684364 346 1024ft 0kts
18-Oct-20 12:46 33.429560 -112.684369 348 1024ft 0kts
18-Oct-20 12:47 33.429560 -112.684369 349 1024ft 0kts
18-Oct-20 12:48 33.430001 -112.685105 268 1024ft 4kts
18-Oct-20 12:49 33.419282 -112.687112 186 1234ft 76kts
18-Oct-20 12:50 33.399021 -112.691023 159 1994ft 74kts
18-Oct-20 12:51 33.386296 -112.671530 124 2626ft 84kts
18-Oct-20 12:52 33.375757 -112.646685 108 3194ft 86kts
18-Oct-20 12:53 33.371171 -112.616052 100 3406ft 95kts
18-Oct-20 12:54 33.368761 -112.583191 97 3531ft 100kts
18-Oct-20 12:55 33.366980 -112.547665 94 3480ft 107kts
18-Oct-20 12:56 33.367206 -112.511865 94 3476ft 107kts
18-Oct-20 12:57 33.367492 -112.477443 90 3510ft 103kts
18-Oct-20 12:58 33.367262 -112.442581 89 3483ft 105kts
18-Oct-20 12:59 33.367902 -112.408232 86 3541ft 103kts
18-Oct-20 13:00 33.368334 -112.373543 85 3572ft 103kts
18-Oct-20 13:01 33.369944 -112.338912 86 3607ft 104kts
18-Oct-20 13:02 33.367961 -112.304106 120 3605ft 108kts
18-Oct-20 13:03 33.343659 -112.281121 141 3577ft 112kts
18-Oct-20 13:04 33.318564 -112.258857 137 3557ft 111kts
18-Oct-20 13:05 33.294256 -112.235853 141 3538ft 112kts
18-Oct-20 13:06 33.269037 -112.215150 144 3515ft 112kts
18-Oct-20 13:07 33.255154 -112.185115 90 3506ft 105kts
18-Oct-20 13:08 33.255373 -112.149626 87 3473ft 108kts
18-Oct-20 13:09 33.257895 -112.114056 87 3457ft 107kts
18-Oct-20 13:10 33.256545 -112.078500 93 3436ft 107kts
18-Oct-20 13:11 33.254433 -112.042639 94 3401ft 108kts
18-Oct-20 13:13 33.251891 -112.006436 97 3368ft 110kts
18-Oct-20 13:14 33.254545 -111.970315 81 3054ft 110kts
18-Oct-20 13:15 33.255214 -111.933986 91 2797ft 105kts
18-Oct-20 13:16 33.251047 -111.899304 100 2500ft 104kts
18-Oct-20 13:17 33.244377 -111.865097 96 2174ft 108kts
18-Oct-20 13:18 33.255850 -111.831923 47 1799ft 104kts
18-Oct-20 13:19 33.270890 -111.811323 51 2055ft 71kts
18-Oct-20 13:20 33.285778 -111.803692 325 2216ft 76kts
18-Oct-20 13:21 33.286536 -111.823709 231 2351ft 76kts
18-Oct-20 13:22 33.272077 -111.843044 201 2265ft 79kts
18-Oct-20 13:23 33.258418 -111.829734 65 1757ft 70kts
18-Oct-20 13:24 33.267729 -111.814963 49 1234ft 33kts
18-Oct-20 13:25 33.269104 -111.813917 318 1235ft 0kts
18-Oct-20 13:26 33.270497 -111.814421 55 1234ft 6kts
18-Oct-20 13:27 33.270437 -111.814155 140 1234ft 0kts
18-Oct-20 13:28 33.270437 -111.814155 140 1234ft 0kts

Navigation Log

Ident Type
Flight plan parsing failed, navigation log unavailable